Airfield :
LOGIN :

Register | Disclaimer

   EN    FR    IT 

 










Legend :    VFR   Marginal VFR   IFR   Intensive IFR   Very Intensive IFR
Visi :
Ceiling :
>= 8 km
>= 3000ft
5 to 8 km
1000 to 3000 ft
1500m to 5 km
500 to 1000 ft
800 to 1500m
200 to 500 ft
< 800m
< 200 ft
Symbols :   Thunderstorms  Fog  Heavy snow  Heavy precipitations  Wind > 20 kt
SIGMETs :     Misc.  Thunderstorms  Icing  Turbulence  Mountain Waves  Volcanic Ashes






- Airport Elevation : 995 ft
- IATA code : KTW


EPKT - Katowice

CURRENT METAR :
  • 072100Z 21010KT 8000 -SHRA SCT038CB BKN042 04/02 Q1012

EXPIRED METARs :
  • 072030Z 22010KT 6000 -SHRA SCT025CB BKN029 04/02 Q1012
  • 072000Z 22012KT 9999 SCT028 BKN031 OVC037 04/02 Q1012
  • 071930Z 24011KT 9999 FEW006 SCT024 BKN027 04/02 Q1012
  • 071900Z 23009KT 9999 FEW029 BKN036 BKN040 04/02 Q1012
  • 071830Z 23009KT 8000 SCT026CB BKN034 OVC039 04/02 Q1012
  • 071800Z 22009KT 7000 SCT023 BKN027 BKN031CB 04/02 Q1012

TAF TAF EPKT
Valid from the 07 at 18:00 until the 08 at 18:00 UTC


071730Z 0718/0818 22013KT 9999 BKN040
TEMPO 0718/0723 4000 SHRA BKN012CB
TEMPO 0807/0818 22015G27KT



MET'MAP, your aeronautical weather chart ! - Copyright ORBIFLY December 2007 - Disclaimer

ORBIFLY MET'MAP TEAM :

Programming & Development : Alexandra Zaïnal
Concept & original design : Baudouin d'Aumeries
Assistance for programming : Marc-Olivier Méhu
Technical & hardware support : Manuel Goepfert

Contact : metmap@orbifly.com




SOURCES & CREDITS :

   NOAA